sensor_id;sensor_type;location;lat;lon;timestamp;P1;P2;P0
48717;PMS5003;34521;33.042;-96.586;2023-12-20T00:00:23;0;0;
48717;PMS5003;34521;33.042;-96.586;2023-12-20T00:02:50;0;0;
48717;PMS5003;34521;33.042;-96.586;2023-12-20T00:05:14;0;0;
48717;PMS5003;34521;33.042;-96.586;2023-12-20T00:07:39;0;0;
48717;PMS5003;34521;33.042;-96.586;2023-12-20T00:10:04;0;0;
48717;PMS5003;34521;33.042;-96.586;2023-12-20T00:12:30;0;0;
48717;PMS5003;34521;33.042;-96.586;2023-12-20T00:14:54;0;0;
48717;PMS5003;34521;33.042;-96.586;2023-12-20T00:17:20;0;0;
48717;PMS5003;34521;33.042;-96.586;2023-12-20T00:19:44;0;0;
48717;PMS5003;34521;33.042;-96.586;2023-12-20T00:22:09;0;0;
48717;PMS5003;34521;33.042;-96.586;2023-12-20T00:24:34;1;1;
48717;PMS5003;34521;33.042;-96.586;2023-12-20T00:26:59;0;0;
48717;PMS5003;34521;33.042;-96.586;2023-12-20T00:29:25;0;0;
48717;PMS5003;34521;33.042;-96.586;2023-12-20T00:31:50;0;0;
48717;PMS5003;34521;33.042;-96.586;2023-12-20T00:34:15;1;1;
48717;PMS5003;34521;33.042;-96.586;2023-12-20T00:36:40;0;0;
48717;PMS5003;34521;33.042;-96.586;2023-12-20T00:39:05;1;1;
48717;PMS5003;34521;33.042;-96.586;2023-12-20T00:41:31;0;0;
48717;PMS5003;34521;33.042;-96.586;2023-12-20T00:43:55;0;0;
48717;PMS5003;34521;33.042;-96.586;2023-12-20T00:46:22;1;1;
48717;PMS5003;34521;33.042;-96.586;2023-12-20T00:48:46;0;0;
48717;PMS5003;34521;33.042;-96.586;2023-12-20T00:51:10;0;0;
48717;PMS5003;34521;33.042;-96.586;2023-12-20T00:53:36;0;0;
48717;PMS5003;34521;33.042;-96.586;2023-12-20T00:56:01;1;1;
48717;PMS5003;34521;33.042;-96.586;2023-12-20T00:58:25;0;0;
48717;PMS5003;34521;33.042;-96.586;2023-12-20T01:00:51;0;0;
48717;PMS5003;34521;33.042;-96.586;2023-12-20T01:03:16;1;1;
48717;PMS5003;34521;33.042;-96.586;2023-12-20T01:05:41;0;0;
48717;PMS5003;34521;33.042;-96.586;2023-12-20T01:08:07;0;0;
48717;PMS5003;34521;33.042;-96.586;2023-12-20T01:10:31;0;0;
48717;PMS5003;34521;33.042;-96.586;2023-12-20T01:12:57;0;0;
48717;PMS5003;34521;33.042;-96.586;2023-12-20T01:15:21;1;1;
48717;PMS5003;34521;33.042;-96.586;2023-12-20T01:17:47;0;0;
48717;PMS5003;34521;33.042;-96.586;2023-12-20T01:20:11;1;1;
48717;PMS5003;34521;33.042;-96.586;2023-12-20T01:22:36;0;0;
48717;PMS5003;34521;33.042;-96.586;2023-12-20T01:25:03;0;0;
48717;PMS5003;34521;33.042;-96.586;2023-12-20T01:27:26;0;0;
48717;PMS5003;34521;33.042;-96.586;2023-12-20T01:29:51;0;0;
48717;PMS5003;34521;33.042;-96.586;2023-12-20T01:32:18;1;1;
48717;PMS5003;34521;33.042;-96.586;2023-12-20T01:34:42;0;0;
48717;PMS5003;34521;33.042;-96.586;2023-12-20T01:37:07;0;0;
48717;PMS5003;34521;33.042;-96.586;2023-12-20T01:39:32;0;0;
48717;PMS5003;34521;33.042;-96.586;2023-12-20T01:41:57;1;0;
48717;PMS5003;34521;33.042;-96.586;2023-12-20T01:44:22;1;1;
48717;PMS5003;34521;33.042;-96.586;2023-12-20T01:46:48;0;0;
48717;PMS5003;34521;33.042;-96.586;2023-12-20T01:49:12;0;0;
48717;PMS5003;34521;33.042;-96.586;2023-12-20T01:51:37;0;0;
48717;PMS5003;34521;33.042;-96.586;2023-12-20T01:54:02;0;0;
48717;PMS5003;34521;33.042;-96.586;2023-12-20T01:56:27;0;0;
48717;PMS5003;34521;33.042;-96.586;2023-12-20T01:58:52;0;0;
48717;PMS5003;34521;33.042;-96.586;2023-12-20T02:01:17;1;1;
48717;PMS5003;34521;33.042;-96.586;2023-12-20T02:03:42;0;0;
48717;PMS5003;34521;33.042;-96.586;2023-12-20T02:06:08;1;1;
48717;PMS5003;34521;33.042;-96.586;2023-12-20T02:08:33;0;0;
48717;PMS5003;34521;33.042;-96.586;2023-12-20T02:11:00;0;0;
48717;PMS5003;34521;33.042;-96.586;2023-12-20T02:13:23;1;1;
48717;PMS5003;34521;33.042;-96.586;2023-12-20T02:15:49;0;0;
48717;PMS5003;34521;33.042;-96.586;2023-12-20T02:18:13;0;0;
48717;PMS5003;34521;33.042;-96.586;2023-12-20T02:20:38;0;0;
48717;PMS5003;34521;33.042;-96.586;2023-12-20T02:23:04;0;0;
48717;PMS5003;34521;33.042;-96.586;2023-12-20T02:25:29;0;0;
48717;PMS5003;34521;33.042;-96.586;2023-12-20T02:27:54;0;0;
48717;PMS5003;34521;33.042;-96.586;2023-12-20T02:30:18;0;0;
48717;PMS5003;34521;33.042;-96.586;2023-12-20T02:32:44;1;1;
48717;PMS5003;34521;33.042;-96.586;2023-12-20T02:35:09;1;1;
48717;PMS5003;34521;33.042;-96.586;2023-12-20T02:37:34;1;1;
48717;PMS5003;34521;33.042;-96.586;2023-12-20T02:40:00;1;1;
48717;PMS5003;34521;33.042;-96.586;2023-12-20T02:42:25;0;0;
48717;PMS5003;34521;33.042;-96.586;2023-12-20T02:44:49;0;0;
48717;PMS5003;34521;33.042;-96.586;2023-12-20T02:47:14;0;0;
48717;PMS5003;34521;33.042;-96.586;2023-12-20T02:49:39;1;1;
48717;PMS5003;34521;33.042;-96.586;2023-12-20T02:52:05;0;0;
48717;PMS5003;34521;33.042;-96.586;2023-12-20T02:54:29;0;0;
48717;PMS5003;34521;33.042;-96.586;2023-12-20T02:56:54;0;0;
48717;PMS5003;34521;33.042;-96.586;2023-12-20T02:59:19;0;0;
48717;PMS5003;34521;33.042;-96.586;2023-12-20T03:01:45;0;0;
48717;PMS5003;34521;33.042;-96.586;2023-12-20T03:04:09;0;0;
48717;PMS5003;34521;33.042;-96.586;2023-12-20T03:06:35;0;0;
48717;PMS5003;34521;33.042;-96.586;2023-12-20T03:09:00;0;0;
48717;PMS5003;34521;33.042;-96.586;2023-12-20T03:11:26;1;1;
48717;PMS5003;34521;33.042;-96.586;2023-12-20T03:13:50;0;0;
48717;PMS5003;34521;33.042;-96.586;2023-12-20T03:16:15;0;0;
48717;PMS5003;34521;33.042;-96.586;2023-12-20T03:18:41;0;0;
48717;PMS5003;34521;33.042;-96.586;2023-12-20T03:21:06;1;1;
48717;PMS5003;34521;33.042;-96.586;2023-12-20T03:23:31;1;1;
48717;PMS5003;34521;33.042;-96.586;2023-12-20T03:25:56;0;0;
48717;PMS5003;34521;33.042;-96.586;2023-12-20T03:28:20;1;1;
48717;PMS5003;34521;33.042;-96.586;2023-12-20T03:30:47;1;1;
48717;PMS5003;34521;33.042;-96.586;2023-12-20T03:33:11;0;0;
48717;PMS5003;34521;33.042;-96.586;2023-12-20T03:35:35;1;1;
48717;PMS5003;34521;33.042;-96.586;2023-12-20T03:38:02;0;0;
48717;PMS5003;34521;33.042;-96.586;2023-12-20T03:40:26;0;0;
48717;PMS5003;34521;33.042;-96.586;2023-12-20T03:42:51;0;0;
48717;PMS5003;34521;33.042;-96.586;2023-12-20T03:45:16;0;0;
48717;PMS5003;34521;33.042;-96.586;2023-12-20T03:47:41;0;0;
48717;PMS5003;34521;33.042;-96.586;2023-12-20T03:50:07;0;0;
48717;PMS5003;34521;33.042;-96.586;2023-12-20T03:52:31;1;1;
48717;PMS5003;34521;33.042;-96.586;2023-12-20T03:54:57;1;1;
48717;PMS5003;34521;33.042;-96.586;2023-12-20T03:57:22;0;0;
48717;PMS5003;34521;33.042;-96.586;2023-12-20T03:59:46;0;0;
48717;PMS5003;34521;33.042;-96.586;2023-12-20T04:02:11;1;1;
48717;PMS5003;34521;33.042;-96.586;2023-12-20T04:04:36;0;0;
48717;PMS5003;34521;33.042;-96.586;2023-12-20T04:07:01;0;0;
48717;PMS5003;34521;33.042;-96.586;2023-12-20T04:09:26;0;0;
48717;PMS5003;34521;33.042;-96.586;2023-12-20T04:11:52;0;0;
48717;PMS5003;34521;33.042;-96.586;2023-12-20T04:14:17;0;0;
48717;PMS5003;34521;33.042;-96.586;2023-12-20T04:16:43;1;1;
48717;PMS5003;34521;33.042;-96.586;2023-12-20T04:19:08;1;1;
48717;PMS5003;34521;33.042;-96.586;2023-12-20T04:21:32;0;0;
48717;PMS5003;34521;33.042;-96.586;2023-12-20T04:23:57;0;0;
48717;PMS5003;34521;33.042;-96.586;2023-12-20T04:26:22;0;0;
48717;PMS5003;34521;33.042;-96.586;2023-12-20T04:28:47;0;0;
48717;PMS5003;34521;33.042;-96.586;2023-12-20T04:31:12;0;0;
48717;PMS5003;34521;33.042;-96.586;2023-12-20T04:33:37;1;1;
48717;PMS5003;34521;33.042;-96.586;2023-12-20T04:36:03;1;0;
48717;PMS5003;34521;33.042;-96.586;2023-12-20T04:38:27;1;0;
48717;PMS5003;34521;33.042;-96.586;2023-12-20T04:40:53;0;0;
48717;PMS5003;34521;33.042;-96.586;2023-12-20T04:43:18;1;1;
48717;PMS5003;34521;33.042;-96.586;2023-12-20T04:45:43;0;0;
48717;PMS5003;34521;33.042;-96.586;2023-12-20T04:48:08;0;0;
48717;PMS5003;34521;33.042;-96.586;2023-12-20T04:50:34;0;0;
48717;PMS5003;34521;33.042;-96.586;2023-12-20T04:52:58;0;0;
48717;PMS5003;34521;33.042;-96.586;2023-12-20T04:55:23;1;1;
48717;PMS5003;34521;33.042;-96.586;2023-12-20T04:57:48;1;0;
48717;PMS5003;34521;33.042;-96.586;2023-12-20T05:00:14;0;0;
48717;PMS5003;34521;33.042;-96.586;2023-12-20T05:02:38;0;0;
48717;PMS5003;34521;33.042;-96.586;2023-12-20T05:05:03;0;0;
48717;PMS5003;34521;33.042;-96.586;2023-12-20T05:07:28;1;1;
48717;PMS5003;34521;33.042;-96.586;2023-12-20T05:09:53;0;0;
48717;PMS5003;34521;33.042;-96.586;2023-12-20T05:12:18;1;1;
48717;PMS5003;34521;33.042;-96.586;2023-12-20T05:14:44;0;0;
48717;PMS5003;34521;33.042;-96.586;2023-12-20T05:17:08;0;0;
48717;PMS5003;34521;33.042;-96.586;2023-12-20T05:19:34;0;0;
48717;PMS5003;34521;33.042;-96.586;2023-12-20T05:22:00;0;0;
48717;PMS5003;34521;33.042;-96.586;2023-12-20T05:24:25;0;0;
48717;PMS5003;34521;33.042;-96.586;2023-12-20T05:26:49;1;1;
48717;PMS5003;34521;33.042;-96.586;2023-12-20T05:29:16;0;0;
48717;PMS5003;34521;33.042;-96.586;2023-12-20T05:31:39;1;0;
48717;PMS5003;34521;33.042;-96.586;2023-12-20T05:34:04;1;1;
48717;PMS5003;34521;33.042;-96.586;2023-12-20T05:36:29;1;1;
48717;PMS5003;34521;33.042;-96.586;2023-12-20T05:38:54;0;0;
48717;PMS5003;34521;33.042;-96.586;2023-12-20T05:41:19;0;0;
48717;PMS5003;34521;33.042;-96.586;2023-12-20T05:43:45;0;0;
48717;PMS5003;34521;33.042;-96.586;2023-12-20T05:46:11;0;0;
48717;PMS5003;34521;33.042;-96.586;2023-12-20T05:48:34;0;0;
48717;PMS5003;34521;33.042;-96.586;2023-12-20T05:50:59;1;1;
48717;PMS5003;34521;33.042;-96.586;2023-12-20T05:53:26;0;0;
48717;PMS5003;34521;33.042;-96.586;2023-12-20T05:55:51;0;0;
48717;PMS5003;34521;33.042;-96.586;2023-12-20T05:58:15;0;0;
48717;PMS5003;34521;33.042;-96.586;2023-12-20T06:00:41;1;1;
48717;PMS5003;34521;33.042;-96.586;2023-12-20T06:03:06;0;0;
48717;PMS5003;34521;33.042;-96.586;2023-12-20T06:05:30;0;0;
48717;PMS5003;34521;33.042;-96.586;2023-12-20T06:07:55;1;0;
48717;PMS5003;34521;33.042;-96.586;2023-12-20T06:10:20;0;0;
48717;PMS5003;34521;33.042;-96.586;2023-12-20T06:12:45;1;1;
48717;PMS5003;34521;33.042;-96.586;2023-12-20T06:15:11;2;1;
48717;PMS5003;34521;33.042;-96.586;2023-12-20T06:17:37;0;0;
48717;PMS5003;34521;33.042;-96.586;2023-12-20T06:20:01;0;0;
48717;PMS5003;34521;33.042;-96.586;2023-12-20T06:22:26;0;0;
48717;PMS5003;34521;33.042;-96.586;2023-12-20T06:24:51;0;0;
48717;PMS5003;34521;33.042;-96.586;2023-12-20T06:27:16;1;1;
48717;PMS5003;34521;33.042;-96.586;2023-12-20T06:29:41;1;0;
48717;PMS5003;34521;33.042;-96.586;2023-12-20T06:32:06;0;0;
48717;PMS5003;34521;33.042;-96.586;2023-12-20T06:34:32;0;0;
48717;PMS5003;34521;33.042;-96.586;2023-12-20T06:36:57;0;0;
48717;PMS5003;34521;33.042;-96.586;2023-12-20T06:39:21;0;0;
48717;PMS5003;34521;33.042;-96.586;2023-12-20T06:41:47;0;0;
48717;PMS5003;34521;33.042;-96.586;2023-12-20T06:44:11;0;0;
48717;PMS5003;34521;33.042;-96.586;2023-12-20T06:46:37;0;0;
48717;PMS5003;34521;33.042;-96.586;2023-12-20T06:49:02;0;0;
48717;PMS5003;34521;33.042;-96.586;2023-12-20T06:51:27;0;0;
48717;PMS5003;34521;33.042;-96.586;2023-12-20T06:53:52;0;0;
48717;PMS5003;34521;33.042;-96.586;2023-12-20T06:56:18;0;0;
48717;PMS5003;34521;33.042;-96.586;2023-12-20T06:58:43;1;0;
48717;PMS5003;34521;33.042;-96.586;2023-12-20T07:01:11;0;0;
48717;PMS5003;34521;33.042;-96.586;2023-12-20T07:03:33;0;0;
48717;PMS5003;34521;33.042;-96.586;2023-12-20T07:05:57;1;1;
48717;PMS5003;34521;33.042;-96.586;2023-12-20T07:08:22;1;1;
48717;PMS5003;34521;33.042;-96.586;2023-12-20T07:10:48;0;0;
48717;PMS5003;34521;33.042;-96.586;2023-12-20T07:13:13;0;0;
48717;PMS5003;34521;33.042;-96.586;2023-12-20T07:15:38;0;0;
48717;PMS5003;34521;33.042;-96.586;2023-12-20T07:18:04;0;0;
48717;PMS5003;34521;33.042;-96.586;2023-12-20T07:20:27;0;0;
48717;PMS5003;34521;33.042;-96.586;2023-12-20T07:22:52;1;1;
48717;PMS5003;34521;33.042;-96.586;2023-12-20T07:25:18;0;0;
48717;PMS5003;34521;33.042;-96.586;2023-12-20T07:27:43;1;1;
48717;PMS5003;34521;33.042;-96.586;2023-12-20T07:30:09;0;0;
48717;PMS5003;34521;33.042;-96.586;2023-12-20T07:32:33;1;1;
48717;PMS5003;34521;33.042;-96.586;2023-12-20T07:34:58;0;0;
48717;PMS5003;34521;33.042;-96.586;2023-12-20T07:37:23;1;1;
48717;PMS5003;34521;33.042;-96.586;2023-12-20T07:39:50;0;0;
48717;PMS5003;34521;33.042;-96.586;2023-12-20T07:42:14;0;0;
48717;PMS5003;34521;33.042;-96.586;2023-12-20T07:44:38;0;0;
48717;PMS5003;34521;33.042;-96.586;2023-12-20T07:47:04;0;0;
48717;PMS5003;34521;33.042;-96.586;2023-12-20T07:49:29;1;1;
48717;PMS5003;34521;33.042;-96.586;2023-12-20T07:51:53;1;1;
48717;PMS5003;34521;33.042;-96.586;2023-12-20T07:54:19;0;0;
48717;PMS5003;34521;33.042;-96.586;2023-12-20T07:56:44;0;0;
48717;PMS5003;34521;33.042;-96.586;2023-12-20T07:59:09;1;1;
48717;PMS5003;34521;33.042;-96.586;2023-12-20T08:01:34;1;1;
48717;PMS5003;34521;33.042;-96.586;2023-12-20T08:03:59;1;1;
48717;PMS5003;34521;33.042;-96.586;2023-12-20T08:06:24;0;0;
48717;PMS5003;34521;33.042;-96.586;2023-12-20T08:08:49;0;0;
48717;PMS5003;34521;33.042;-96.586;2023-12-20T08:11:14;1;1;
48717;PMS5003;34521;33.042;-96.586;2023-12-20T08:13:39;0;0;
48717;PMS5003;34521;33.042;-96.586;2023-12-20T08:16:04;1;1;
48717;PMS5003;34521;33.042;-96.586;2023-12-20T08:18:29;0;0;
48717;PMS5003;34521;33.042;-96.586;2023-12-20T08:20:54;0;0;
48717;PMS5003;34521;33.042;-96.586;2023-12-20T08:23:20;0;0;
48717;PMS5003;34521;33.042;-96.586;2023-12-20T08:25:45;0;0;
48717;PMS5003;34521;33.042;-96.586;2023-12-20T08:28:10;1;1;
48717;PMS5003;34521;33.042;-96.586;2023-12-20T08:30:36;1;1;
48717;PMS5003;34521;33.042;-96.586;2023-12-20T08:33:00;0;0;
48717;PMS5003;34521;33.042;-96.586;2023-12-20T08:35:25;0;0;
48717;PMS5003;34521;33.042;-96.586;2023-12-20T08:37:50;0;0;
48717;PMS5003;34521;33.042;-96.586;2023-12-20T08:40:17;0;0;
48717;PMS5003;34521;33.042;-96.586;2023-12-20T08:42:40;1;1;
48717;PMS5003;34521;33.042;-96.586;2023-12-20T08:45:06;1;1;
48717;PMS5003;34521;33.042;-96.586;2023-12-20T08:47:30;0;0;
48717;PMS5003;34521;33.042;-96.586;2023-12-20T08:49:55;1;1;
48717;PMS5003;34521;33.042;-96.586;2023-12-20T08:52:21;1;1;
48717;PMS5003;34521;33.042;-96.586;2023-12-20T08:54:45;1;1;
48717;PMS5003;34521;33.042;-96.586;2023-12-20T08:57:11;0;0;
48717;PMS5003;34521;33.042;-96.586;2023-12-20T08:59:36;1;1;
48717;PMS5003;34521;33.042;-96.586;2023-12-20T09:02:01;1;1;
48717;PMS5003;34521;33.042;-96.586;2023-12-20T09:04:26;1;1;
48717;PMS5003;34521;33.042;-96.586;2023-12-20T09:06:51;0;0;
48717;PMS5003;34521;33.042;-96.586;2023-12-20T09:09:16;0;0;
48717;PMS5003;34521;33.042;-96.586;2023-12-20T09:11:42;1;1;
48717;PMS5003;34521;33.042;-96.586;2023-12-20T09:14:06;0;0;
48717;PMS5003;34521;33.042;-96.586;2023-12-20T09:16:31;0;0;
48717;PMS5003;34521;33.042;-96.586;2023-12-20T09:18:56;1;1;
48717;PMS5003;34521;33.042;-96.586;2023-12-20T09:21:21;1;1;
48717;PMS5003;34521;33.042;-96.586;2023-12-20T09:23:46;0;0;
48717;PMS5003;34521;33.042;-96.586;2023-12-20T09:26:11;0;0;
48717;PMS5003;34521;33.042;-96.586;2023-12-20T09:28:37;0;0;
48717;PMS5003;34521;33.042;-96.586;2023-12-20T09:31:04;0;0;
48717;PMS5003;34521;33.042;-96.586;2023-12-20T09:33:27;1;1;
48717;PMS5003;34521;33.042;-96.586;2023-12-20T09:35:53;0;0;
48717;PMS5003;34521;33.042;-96.586;2023-12-20T09:38:17;0;0;
48717;PMS5003;34521;33.042;-96.586;2023-12-20T09:40:43;1;1;
48717;PMS5003;34521;33.042;-96.586;2023-12-20T09:43:10;1;1;
48717;PMS5003;34521;33.042;-96.586;2023-12-20T09:45:34;1;1;
48717;PMS5003;34521;33.042;-96.586;2023-12-20T09:47:57;1;1;
48717;PMS5003;34521;33.042;-96.586;2023-12-20T09:50:24;1;0;
48717;PMS5003;34521;33.042;-96.586;2023-12-20T09:52:49;0;0;
48717;PMS5003;34521;33.042;-96.586;2023-12-20T09:55:13;0;0;
48717;PMS5003;34521;33.042;-96.586;2023-12-20T09:57:38;0;0;
48717;PMS5003;34521;33.042;-96.586;2023-12-20T10:00:03;0;0;
48717;PMS5003;34521;33.042;-96.586;2023-12-20T10:02:29;0;0;
48717;PMS5003;34521;33.042;-96.586;2023-12-20T10:04:54;1;1;
48717;PMS5003;34521;33.042;-96.586;2023-12-20T10:07:19;0;0;
48717;PMS5003;34521;33.042;-96.586;2023-12-20T10:09:44;0;0;
48717;PMS5003;34521;33.042;-96.586;2023-12-20T10:12:09;1;0;
48717;PMS5003;34521;33.042;-96.586;2023-12-20T10:14:34;0;0;
48717;PMS5003;34521;33.042;-96.586;2023-12-20T10:17:02;0;0;
48717;PMS5003;34521;33.042;-96.586;2023-12-20T10:19:24;0;0;
48717;PMS5003;34521;33.042;-96.586;2023-12-20T10:21:49;0;0;
48717;PMS5003;34521;33.042;-96.586;2023-12-20T10:24:16;1;1;
48717;PMS5003;34521;33.042;-96.586;2023-12-20T10:26:39;1;1;
48717;PMS5003;34521;33.042;-96.586;2023-12-20T10:29:06;0;0;
48717;PMS5003;34521;33.042;-96.586;2023-12-20T10:31:29;1;1;
48717;PMS5003;34521;33.042;-96.586;2023-12-20T10:33:56;0;0;
48717;PMS5003;34521;33.042;-96.586;2023-12-20T10:36:19;0;0;
48717;PMS5003;34521;33.042;-96.586;2023-12-20T10:38:45;0;0;
48717;PMS5003;34521;33.042;-96.586;2023-12-20T10:41:11;0;0;
48717;PMS5003;34521;33.042;-96.586;2023-12-20T10:43:35;0;0;
48717;PMS5003;34521;33.042;-96.586;2023-12-20T10:45:59;0;0;
48717;PMS5003;34521;33.042;-96.586;2023-12-20T10:48:25;0;0;
48717;PMS5003;34521;33.042;-96.586;2023-12-20T10:50:49;0;0;
48717;PMS5003;34521;33.042;-96.586;2023-12-20T10:53:15;1;1;
48717;PMS5003;34521;33.042;-96.586;2023-12-20T10:55:39;0;0;
48717;PMS5003;34521;33.042;-96.586;2023-12-20T10:58:07;0;0;
48717;PMS5003;34521;33.042;-96.586;2023-12-20T11:00:31;1;0;
48717;PMS5003;34521;33.042;-96.586;2023-12-20T11:02:55;0;0;
48717;PMS5003;34521;33.042;-96.586;2023-12-20T11:05:24;0;0;
48717;PMS5003;34521;33.042;-96.586;2023-12-20T11:07:46;0;0;
48717;PMS5003;34521;33.042;-96.586;2023-12-20T11:10:12;0;0;
48717;PMS5003;34521;33.042;-96.586;2023-12-20T11:12:37;0;0;
48717;PMS5003;34521;33.042;-96.586;2023-12-20T11:15:00;0;0;
48717;PMS5003;34521;33.042;-96.586;2023-12-20T11:17:25;0;0;
48717;PMS5003;34521;33.042;-96.586;2023-12-20T11:22:15;0;0;
48717;PMS5003;34521;33.042;-96.586;2023-12-20T11:24:44;1;1;
48717;PMS5003;34521;33.042;-96.586;2023-12-20T11:27:07;0;0;
48717;PMS5003;34521;33.042;-96.586;2023-12-20T11:29:33;0;0;
48717;PMS5003;34521;33.042;-96.586;2023-12-20T11:31:57;0;0;
48717;PMS5003;34521;33.042;-96.586;2023-12-20T11:34:22;0;0;
48717;PMS5003;34521;33.042;-96.586;2023-12-20T11:36:46;0;0;
48717;PMS5003;34521;33.042;-96.586;2023-12-20T11:39:11;0;0;
48717;PMS5003;34521;33.042;-96.586;2023-12-20T11:41:37;1;1;
48717;PMS5003;34521;33.042;-96.586;2023-12-20T11:44:01;1;1;
48717;PMS5003;34521;33.042;-96.586;2023-12-20T11:46:26;0;0;
48717;PMS5003;34521;33.042;-96.586;2023-12-20T11:48:51;0;0;
48717;PMS5003;34521;33.042;-96.586;2023-12-20T11:51:17;1;0;
48717;PMS5003;34521;33.042;-96.586;2023-12-20T11:53:41;0;0;
48717;PMS5003;34521;33.042;-96.586;2023-12-20T11:56:08;0;0;
48717;PMS5003;34521;33.042;-96.586;2023-12-20T11:58:32;0;0;
48717;PMS5003;34521;33.042;-96.586;2023-12-20T12:00:57;0;0;
48717;PMS5003;34521;33.042;-96.586;2023-12-20T12:03:22;1;1;
48717;PMS5003;34521;33.042;-96.586;2023-12-20T12:05:47;0;0;
48717;PMS5003;34521;33.042;-96.586;2023-12-20T12:08:12;3;3;
48717;PMS5003;34521;33.042;-96.586;2023-12-20T12:10:37;3;3;
48717;PMS5003;34521;33.042;-96.586;2023-12-20T12:13:03;4;4;
48717;PMS5003;34521;33.042;-96.586;2023-12-20T12:15:27;3;3;
48717;PMS5003;34521;33.042;-96.586;2023-12-20T12:17:53;4;4;
48717;PMS5003;34521;33.042;-96.586;2023-12-20T12:20:19;3;3;
48717;PMS5003;34521;33.042;-96.586;2023-12-20T12:22:43;6;6;
48717;PMS5003;34521;33.042;-96.586;2023-12-20T12:25:10;5;5;
48717;PMS5003;34521;33.042;-96.586;2023-12-20T12:27:33;5;5;
48717;PMS5003;34521;33.042;-96.586;2023-12-20T12:30:01;6;6;
48717;PMS5003;34521;33.042;-96.586;2023-12-20T12:32:23;5;5;
48717;PMS5003;34521;33.042;-96.586;2023-12-20T12:34:49;6;6;
48717;PMS5003;34521;33.042;-96.586;2023-12-20T12:37:13;5;5;
48717;PMS5003;34521;33.042;-96.586;2023-12-20T12:39:39;6;5;
48717;PMS5003;34521;33.042;-96.586;2023-12-20T12:42:04;6;6;
48717;PMS5003;34521;33.042;-96.586;2023-12-20T12:44:29;5;5;
48717;PMS5003;34521;33.042;-96.586;2023-12-20T12:46:54;4;4;
48717;PMS5003;34521;33.042;-96.586;2023-12-20T12:49:19;4;4;
48717;PMS5003;34521;33.042;-96.586;2023-12-20T12:51:45;6;6;
48717;PMS5003;34521;33.042;-96.586;2023-12-20T12:54:09;5;5;
48717;PMS5003;34521;33.042;-96.586;2023-12-20T12:56:35;4;4;
48717;PMS5003;34521;33.042;-96.586;2023-12-20T12:58:59;4;4;
48717;PMS5003;34521;33.042;-96.586;2023-12-20T13:01:25;6;6;
48717;PMS5003;34521;33.042;-96.586;2023-12-20T13:03:50;4;4;
48717;PMS5003;34521;33.042;-96.586;2023-12-20T13:06:14;6;6;
48717;PMS5003;34521;33.042;-96.586;2023-12-20T13:08:40;7;6;
48717;PMS5003;34521;33.042;-96.586;2023-12-20T13:11:05;3;3;
48717;PMS5003;34521;33.042;-96.586;2023-12-20T13:13:30;5;5;
48717;PMS5003;34521;33.042;-96.586;2023-12-20T13:15:55;5;5;
48717;PMS5003;34521;33.042;-96.586;2023-12-20T13:18:20;4;4;
48717;PMS5003;34521;33.042;-96.586;2023-12-20T13:20:45;6;5;
48717;PMS5003;34521;33.042;-96.586;2023-12-20T13:23:10;5;5;
48717;PMS5003;34521;33.042;-96.586;2023-12-20T13:25:35;5;5;
48717;PMS5003;34521;33.042;-96.586;2023-12-20T13:28:01;5;5;
48717;PMS5003;34521;33.042;-96.586;2023-12-20T13:30:26;5;5;
48717;PMS5003;34521;33.042;-96.586;2023-12-20T13:32:51;3;3;
48717;PMS5003;34521;33.042;-96.586;2023-12-20T13:35:18;4;4;
48717;PMS5003;34521;33.042;-96.586;2023-12-20T13:37:42;4;4;
48717;PMS5003;34521;33.042;-96.586;2023-12-20T13:40:07;2;2;
48717;PMS5003;34521;33.042;-96.586;2023-12-20T13:42:31;3;3;
48717;PMS5003;34521;33.042;-96.586;2023-12-20T13:44:58;3;3;
48717;PMS5003;34521;33.042;-96.586;2023-12-20T13:47:22;4;4;
48717;PMS5003;34521;33.042;-96.586;2023-12-20T13:49:47;5;4;
48717;PMS5003;34521;33.042;-96.586;2023-12-20T13:52:12;3;3;
48717;PMS5003;34521;33.042;-96.586;2023-12-20T13:54:38;4;4;
48717;PMS5003;34521;33.042;-96.586;2023-12-20T13:57:02;4;4;
48717;PMS5003;34521;33.042;-96.586;2023-12-20T13:59:27;5;5;
48717;PMS5003;34521;33.042;-96.586;2023-12-20T14:01:52;5;5;
48717;PMS5003;34521;33.042;-96.586;2023-12-20T14:04:18;4;4;
48717;PMS5003;34521;33.042;-96.586;2023-12-20T14:06:44;3;3;
48717;PMS5003;34521;33.042;-96.586;2023-12-20T14:09:08;5;5;
48717;PMS5003;34521;33.042;-96.586;2023-12-20T14:11:32;4;4;
48717;PMS5003;34521;33.042;-96.586;2023-12-20T14:13:59;4;4;
48717;PMS5003;34521;33.042;-96.586;2023-12-20T14:16:24;4;3;
48717;PMS5003;34521;33.042;-96.586;2023-12-20T14:18:50;3;3;
48717;PMS5003;34521;33.042;-96.586;2023-12-20T14:21:14;3;3;
48717;PMS5003;34521;33.042;-96.586;2023-12-20T14:23:39;3;3;
48717;PMS5003;34521;33.042;-96.586;2023-12-20T14:26:04;3;3;
48717;PMS5003;34521;33.042;-96.586;2023-12-20T14:28:29;2;2;
48717;PMS5003;34521;33.042;-96.586;2023-12-20T14:30:55;4;3;
48717;PMS5003;34521;33.042;-96.586;2023-12-20T14:33:19;3;3;
48717;PMS5003;34521;33.042;-96.586;2023-12-20T14:35:45;4;3;
48717;PMS5003;34521;33.042;-96.586;2023-12-20T14:38:10;4;4;
48717;PMS5003;34521;33.042;-96.586;2023-12-20T14:40:34;3;3;
48717;PMS5003;34521;33.042;-96.586;2023-12-20T14:43:01;2;2;
48717;PMS5003;34521;33.042;-96.586;2023-12-20T14:45:25;3;3;
48717;PMS5003;34521;33.042;-96.586;2023-12-20T14:47:50;3;3;
48717;PMS5003;34521;33.042;-96.586;2023-12-20T14:50:15;2;2;
48717;PMS5003;34521;33.042;-96.586;2023-12-20T14:52:40;3;3;
48717;PMS5003;34521;33.042;-96.586;2023-12-20T14:55:05;3;2;
48717;PMS5003;34521;33.042;-96.586;2023-12-20T14:57:30;2;2;
48717;PMS5003;34521;33.042;-96.586;2023-12-20T14:59:55;3;3;
48717;PMS5003;34521;33.042;-96.586;2023-12-20T15:02:22;1;1;
48717;PMS5003;34521;33.042;-96.586;2023-12-20T15:04:45;3;3;
48717;PMS5003;34521;33.042;-96.586;2023-12-20T15:07:11;2;2;
48717;PMS5003;34521;33.042;-96.586;2023-12-20T15:09:37;3;3;
48717;PMS5003;34521;33.042;-96.586;2023-12-20T15:12:01;4;2;
48717;PMS5003;34521;33.042;-96.586;2023-12-20T15:14:26;2;2;
48717;PMS5003;34521;33.042;-96.586;2023-12-20T15:16:53;3;3;
48717;PMS5003;34521;33.042;-96.586;2023-12-20T15:19:16;2;2;
48717;PMS5003;34521;33.042;-96.586;2023-12-20T15:21:42;2;2;
48717;PMS5003;34521;33.042;-96.586;2023-12-20T15:24:07;2;2;
48717;PMS5003;34521;33.042;-96.586;2023-12-20T15:26:32;2;2;
48717;PMS5003;34521;33.042;-96.586;2023-12-20T15:28:57;1;1;
48717;PMS5003;34521;33.042;-96.586;2023-12-20T15:31:22;3;3;
48717;PMS5003;34521;33.042;-96.586;2023-12-20T15:33:47;2;2;
48717;PMS5003;34521;33.042;-96.586;2023-12-20T15:36:12;2;1;
48717;PMS5003;34521;33.042;-96.586;2023-12-20T15:38:37;2;2;
48717;PMS5003;34521;33.042;-96.586;2023-12-20T15:41:02;2;2;
48717;PMS5003;34521;33.042;-96.586;2023-12-20T15:43:27;0;0;
48717;PMS5003;34521;33.042;-96.586;2023-12-20T15:45:53;1;1;
48717;PMS5003;34521;33.042;-96.586;2023-12-20T15:48:18;1;1;
48717;PMS5003;34521;33.042;-96.586;2023-12-20T15:50:43;1;1;
48717;PMS5003;34521;33.042;-96.586;2023-12-20T15:53:08;1;1;
48717;PMS5003;34521;33.042;-96.586;2023-12-20T15:55:33;3;2;
48717;PMS5003;34521;33.042;-96.586;2023-12-20T15:57:58;1;1;
48717;PMS5003;34521;33.042;-96.586;2023-12-20T16:00:24;2;2;
48717;PMS5003;34521;33.042;-96.586;2023-12-20T16:02:48;1;1;
48717;PMS5003;34521;33.042;-96.586;2023-12-20T16:05:13;1;1;